createdAt,value
2019-05-05T00:00:44.629Z,5.52
2019-05-05T00:01:45.082Z,5.62
2019-05-05T00:02:44.843Z,5.48
2019-05-05T00:03:44.603Z,5.49
2019-05-05T00:04:45.464Z,5.47
2019-05-05T00:05:44.473Z,5.51
2019-05-05T00:06:44.591Z,5.55
2019-05-05T00:07:44.849Z,5.52
2019-05-05T00:08:45.674Z,5.48
2019-05-05T00:09:44.986Z,5.45
2019-05-05T00:10:45.241Z,5.49
2019-05-05T00:11:44.540Z,5.47
2019-05-05T00:12:44.845Z,5.45
2019-05-05T00:13:44.821Z,5.42
2019-05-05T00:14:44.410Z,5.44
2019-05-05T00:15:45.013Z,5.45
2019-05-05T00:16:44.605Z,5.42
2019-05-05T00:17:45.033Z,5.38
2019-05-05T00:18:44.850Z,5.45
2019-05-05T00:19:45.437Z,5.37
2019-05-05T00:20:44.678Z,5.32
2019-05-05T00:21:44.668Z,5.23
2019-05-05T00:22:45.510Z,5.29
2019-05-05T00:23:45.102Z,5.29
2019-05-05T00:24:44.499Z,5.29
2019-05-05T00:25:44.796Z,5.37
2019-05-05T00:26:46.046Z,5.35
2019-05-05T00:27:45.228Z,5.29
2019-05-05T00:28:44.868Z,5.33
2019-05-05T00:29:45.363Z,5.40
2019-05-05T00:30:44.907Z,5.33
2019-05-05T00:31:45.424Z,5.33
2019-05-05T00:32:44.464Z,5.40
2019-05-05T00:33:44.977Z,5.45
2019-05-05T00:34:44.641Z,5.40
2019-05-05T00:35:45.125Z,5.33
2019-05-05T00:36:44.722Z,5.32
2019-05-05T00:37:45.043Z,5.38
2019-05-05T00:38:44.647Z,5.38
2019-05-05T00:39:45.233Z,5.33
2019-05-05T00:40:44.481Z,5.27
2019-05-05T00:41:44.983Z,5.29
2019-05-05T00:42:45.585Z,5.26
2019-05-05T00:43:45.094Z,5.23
2019-05-05T00:44:44.759Z,5.14
2019-05-05T00:45:45.113Z,5.11
2019-05-05T00:46:44.726Z,5.12
2019-05-05T00:47:45.050Z,5.08
2019-05-05T00:48:44.580Z,5.09
2019-05-05T00:49:49.084Z,5.08
2019-05-05T00:50:45.033Z,5.09
2019-05-05T00:51:44.519Z,5.12
2019-05-05T00:52:44.660Z,5.12
2019-05-05T00:53:45.002Z,5.12
2019-05-05T00:54:45.040Z,5.09
2019-05-05T00:55:44.534Z,5.15
2019-05-05T00:56:45.027Z,5.11
2019-05-05T00:57:45.327Z,5.20
2019-05-05T00:58:44.680Z,5.12
2019-05-05T00:59:45.243Z,5.14
2019-05-05T01:00:44.543Z,5.15
2019-05-05T01:01:44.854Z,5.17
2019-05-05T01:02:44.982Z,5.19
2019-05-05T01:03:44.558Z,5.14
2019-05-05T01:04:44.598Z,5.19
2019-05-05T01:05:44.898Z,5.12
2019-05-05T01:06:45.059Z,5.06
2019-05-05T01:07:44.559Z,4.99
2019-05-05T01:08:44.656Z,4.97
2019-05-05T01:09:45.088Z,5.05
2019-05-05T01:10:44.572Z,4.90
2019-05-05T01:11:44.690Z,4.91
2019-05-05T01:12:45.069Z,4.87
2019-05-05T01:13:45.534Z,4.87
2019-05-05T01:14:44.854Z,4.83
2019-05-05T01:15:44.924Z,4.69
2019-05-05T01:16:45.611Z,4.68
2019-05-05T01:17:45.118Z,4.68
2019-05-05T01:18:45.117Z,4.65
2019-05-05T01:20:44.894Z,4.72
2019-05-05T01:21:45.402Z,4.71
2019-05-05T01:22:44.887Z,4.69
2019-05-05T01:23:45.499Z,4.75
2019-05-05T01:24:45.856Z,4.79
2019-05-05T01:25:46.130Z,4.84
2019-05-05T01:26:44.730Z,4.90
2019-05-05T01:27:45.328Z,4.83
2019-05-05T01:28:44.796Z,4.80
2019-05-05T01:29:45.174Z,4.86
2019-05-05T01:30:44.626Z,4.80
2019-05-05T01:31:45.161Z,4.87
2019-05-05T01:32:44.704Z,4.83
2019-05-05T01:33:44.929Z,4.94
2019-05-05T01:34:44.636Z,4.87
2019-05-05T01:35:44.862Z,4.94
2019-05-05T01:36:45.219Z,4.88
2019-05-05T01:37:44.641Z,4.88
2019-05-05T01:38:44.826Z,4.87
2019-05-05T01:39:45.206Z,4.91
2019-05-05T01:40:44.753Z,4.90
2019-05-05T01:41:45.291Z,4.88
2019-05-05T01:42:44.747Z,4.91
2019-05-05T01:43:45.183Z,4.88
2019-05-05T01:44:44.922Z,4.87
2019-05-05T01:45:45.301Z,4.88
2019-05-05T01:46:44.669Z,4.88
2019-05-05T01:47:45.302Z,4.87
2019-05-05T01:48:44.674Z,4.93
2019-05-05T01:49:45.367Z,4.88
2019-05-05T01:50:45.278Z,4.84
2019-05-05T01:51:44.850Z,4.87
2019-05-05T01:52:45.139Z,4.80
2019-05-05T01:53:44.687Z,4.86
2019-05-05T01:54:44.824Z,4.83
2019-05-05T01:55:45.238Z,4.77
2019-05-05T01:56:44.696Z,4.79
2019-05-05T01:57:45.103Z,4.87
2019-05-05T01:58:44.703Z,4.77
2019-05-05T01:59:44.932Z,4.72
2019-05-05T02:00:45.223Z,4.80
2019-05-05T02:01:44.713Z,4.83
2019-05-05T02:02:44.986Z,4.79
2019-05-05T02:03:44.714Z,4.71
2019-05-05T02:04:44.942Z,4.68
2019-05-05T02:05:45.296Z,4.83
2019-05-05T02:06:44.722Z,4.83
2019-05-05T02:07:45.034Z,4.75
2019-05-05T02:08:45.452Z,4.75
2019-05-05T02:09:45.062Z,4.67
2019-05-05T02:10:45.310Z,4.71
2019-05-05T02:11:45.282Z,4.69
2019-05-05T02:12:44.870Z,4.74
2019-05-05T02:13:45.131Z,4.71
2019-05-05T02:14:44.743Z,4.65
2019-05-05T02:15:44.744Z,4.61
2019-05-05T02:16:45.276Z,4.56
2019-05-05T02:17:44.862Z,4.59
2019-05-05T02:18:45.103Z,4.67
2019-05-05T02:19:44.749Z,4.59
2019-05-05T02:20:45.219Z,4.57
2019-05-05T02:21:45.305Z,4.57
2019-05-05T02:22:44.766Z,4.59
2019-05-05T02:23:45.331Z,4.56
2019-05-05T02:24:44.764Z,4.53
2019-05-05T02:25:44.850Z,4.57
2019-05-05T02:26:45.575Z,4.53
2019-05-05T02:27:44.781Z,4.59
2019-05-05T02:28:45.339Z,4.44
2019-05-05T02:29:44.788Z,4.47
2019-05-05T02:30:46.521Z,4.53
2019-05-05T02:31:45.451Z,4.53
2019-05-05T02:32:45.340Z,4.47
2019-05-05T02:33:45.984Z,4.54
2019-05-05T02:34:45.651Z,4.61
2019-05-05T02:35:45.882Z,4.44
2019-05-05T02:36:45.952Z,4.56
2019-05-05T02:37:45.704Z,4.57
2019-05-05T02:38:46.251Z,4.54
2019-05-05T02:39:56.626Z,4.51
2019-05-05T02:40:45.332Z,4.53
2019-05-05T02:41:45.336Z,4.57
2019-05-05T02:42:45.621Z,4.54
2019-05-05T02:43:45.073Z,4.47
2019-05-05T02:44:45.518Z,4.62
2019-05-05T02:45:44.816Z,4.46
2019-05-05T02:46:44.860Z,4.47
2019-05-05T02:47:45.189Z,4.50
2019-05-05T02:48:45.089Z,4.49
2019-05-05T02:49:45.548Z,4.38
2019-05-05T02:50:54.935Z,4.36
2019-05-05T02:51:44.895Z,4.36
2019-05-05T02:52:44.833Z,4.39
2019-05-05T02:53:44.838Z,4.39
2019-05-05T02:54:44.840Z,4.42
2019-05-05T02:55:44.844Z,4.35
2019-05-05T02:56:44.849Z,4.39
2019-05-05T02:57:44.846Z,4.43
2019-05-05T02:58:44.853Z,4.31
2019-05-05T02:59:44.851Z,4.29
2019-05-05T03:00:44.854Z,4.35
2019-05-05T03:01:44.856Z,4.32
2019-05-05T03:02:44.858Z,4.32
2019-05-05T03:03:44.862Z,4.39
2019-05-05T03:04:44.862Z,4.43
2019-05-05T03:05:44.876Z,4.36
2019-05-05T03:06:44.864Z,4.43
2019-05-05T03:07:44.873Z,4.44
2019-05-05T03:08:44.921Z,4.50
2019-05-05T03:09:44.877Z,4.53
2019-05-05T03:10:44.882Z,4.51
2019-05-05T03:11:44.887Z,4.56
2019-05-05T03:12:44.883Z,4.50
2019-05-05T03:13:44.885Z,4.46
2019-05-05T03:14:44.886Z,4.49
2019-05-05T03:15:44.888Z,4.56
2019-05-05T03:16:44.890Z,4.56
2019-05-05T03:17:44.902Z,4.71
2019-05-05T03:18:44.897Z,4.64
2019-05-05T03:19:44.899Z,4.69
2019-05-05T03:20:44.897Z,4.74
2019-05-05T03:21:44.906Z,4.74
2019-05-05T03:22:44.907Z,4.84
2019-05-05T03:23:44.908Z,4.87
2019-05-05T03:24:44.911Z,4.84
2019-05-05T03:25:44.914Z,4.84
2019-05-05T03:26:44.918Z,4.83
2019-05-05T03:27:44.913Z,4.83
2019-05-05T03:28:44.928Z,4.90
2019-05-05T03:29:44.923Z,4.86
2019-05-05T03:30:45.671Z,4.91
2019-05-05T03:31:46.075Z,4.84
2019-05-05T03:32:45.762Z,4.93
2019-05-05T03:33:45.874Z,4.87
2019-05-05T03:34:44.935Z,4.86
2019-05-05T03:35:44.939Z,4.88
2019-05-05T03:36:44.939Z,4.87
2019-05-05T03:37:44.950Z,4.84
2019-05-05T03:38:45.043Z,4.84
2019-05-05T03:39:44.953Z,4.88
2019-05-05T03:40:44.949Z,4.93
2019-05-05T03:41:44.954Z,4.87
2019-05-05T03:42:44.963Z,4.86
2019-05-05T03:43:44.961Z,4.75
2019-05-05T03:44:44.968Z,4.77
2019-05-05T03:45:44.960Z,4.72
2019-05-05T03:46:44.969Z,4.75
2019-05-05T03:47:44.970Z,4.72
2019-05-05T03:48:44.971Z,4.71
2019-05-05T03:49:44.977Z,4.65
2019-05-05T03:50:44.974Z,4.72
2019-05-05T03:51:44.974Z,4.67
2019-05-05T03:52:44.983Z,4.67
2019-05-05T03:53:44.983Z,4.68
2019-05-05T03:54:44.985Z,4.69
2019-05-05T03:55:44.988Z,4.67
2019-05-05T03:56:44.989Z,4.62
2019-05-05T03:57:44.991Z,4.59
2019-05-05T03:58:44.997Z,4.54
2019-05-05T03:59:44.994Z,4.64
2019-05-05T04:00:45.001Z,4.67
2019-05-05T04:01:45.001Z,4.51
2019-05-05T04:02:45.012Z,4.65
2019-05-05T04:03:45.011Z,4.64
2019-05-05T04:04:45.009Z,4.67
2019-05-05T04:05:45.012Z,4.65
2019-05-05T04:06:45.016Z,4.62
2019-05-05T04:07:45.019Z,4.68
2019-05-05T04:08:45.020Z,4.69
2019-05-05T04:09:45.024Z,4.61
2019-05-05T04:10:45.039Z,4.65
2019-05-05T04:11:45.024Z,4.62
2019-05-05T04:12:45.027Z,4.67
2019-05-05T04:13:45.031Z,4.65
2019-05-05T04:14:45.031Z,4.67
2019-05-05T04:15:45.035Z,4.69
2019-05-05T04:17:45.040Z,4.72
2019-05-05T04:18:45.043Z,4.71
2019-05-05T04:19:45.045Z,4.75
2019-05-05T04:20:45.053Z,4.69
2019-05-05T04:21:45.047Z,4.75
2019-05-05T04:22:45.051Z,4.72
2019-05-05T04:23:45.057Z,4.72
2019-05-05T04:24:45.058Z,4.79
2019-05-05T04:25:45.060Z,4.91
2019-05-05T04:26:45.073Z,4.87
2019-05-05T04:27:45.067Z,4.91
2019-05-05T04:28:45.069Z,4.87
2019-05-05T04:29:45.069Z,4.93
2019-05-05T04:30:45.072Z,4.91
2019-05-05T04:31:45.079Z,4.91
2019-05-05T04:32:45.096Z,4.96
2019-05-05T04:33:45.081Z,4.99
2019-05-05T04:34:45.251Z,4.91
2019-05-05T04:35:45.201Z,5.02
2019-05-05T04:36:45.283Z,4.93
2019-05-05T04:37:45.302Z,4.88
2019-05-05T04:38:45.102Z,5.04
2019-05-05T04:39:45.170Z,4.97
2019-05-05T04:40:45.231Z,5.08
2019-05-05T04:41:45.261Z,5.08
2019-05-05T04:42:45.106Z,5.01
2019-05-05T04:43:45.112Z,4.96
2019-05-05T04:44:45.149Z,4.96
2019-05-05T04:45:45.115Z,5.08
2019-05-05T04:46:45.119Z,5.22
2019-05-05T04:47:45.114Z,5.22
2019-05-05T04:48:45.125Z,5.24
2019-05-05T04:49:45.127Z,5.14
2019-05-05T04:50:45.126Z,5.20
2019-05-05T04:51:50.057Z,5.17
2019-05-05T04:52:45.139Z,5.30
2019-05-05T04:53:45.139Z,5.22
2019-05-05T04:54:45.146Z,5.35
2019-05-05T04:55:45.146Z,5.40
2019-05-05T04:56:45.151Z,5.35
2019-05-05T04:57:45.153Z,5.33
2019-05-05T04:58:45.156Z,5.33
2019-05-05T04:59:45.159Z,5.45
2019-05-05T05:00:45.172Z,5.44
2019-05-05T05:01:45.168Z,5.45
2019-05-05T05:02:45.172Z,5.45
2019-05-05T05:03:45.169Z,5.47
2019-05-05T05:04:45.173Z,5.52
2019-05-05T05:05:45.178Z,5.52
2019-05-05T05:06:45.180Z,5.48
2019-05-05T05:07:45.189Z,5.56
2019-05-05T05:08:45.200Z,5.52
2019-05-05T05:09:45.196Z,5.65
2019-05-05T05:10:45.194Z,5.60
2019-05-05T05:11:45.198Z,5.67
2019-05-05T05:12:45.207Z,5.74
2019-05-05T05:13:45.206Z,5.78
2019-05-05T05:14:45.215Z,5.81
2019-05-05T05:15:45.215Z,5.88
2019-05-05T05:16:45.220Z,5.81
2019-05-05T05:17:45.225Z,5.88
2019-05-05T05:18:45.229Z,5.87
2019-05-05T05:19:45.227Z,6.01
2019-05-05T05:20:45.232Z,6.06
2019-05-05T05:21:57.633Z,6.06
2019-05-05T05:22:45.245Z,6.24
2019-05-05T05:23:45.248Z,6.33
2019-05-05T05:24:45.251Z,6.35
2019-05-05T05:25:45.252Z,6.38
2019-05-05T05:26:45.261Z,6.35
2019-05-05T05:27:45.264Z,6.39
2019-05-05T05:28:46.014Z,6.38
2019-05-05T05:29:45.275Z,6.50
2019-05-05T05:30:45.281Z,6.53
2019-05-05T05:31:45.281Z,6.55
2019-05-05T05:32:45.285Z,6.61
2019-05-05T05:33:45.293Z,6.71
2019-05-05T05:34:45.297Z,6.76
2019-05-05T05:35:45.312Z,6.82
2019-05-05T05:36:45.306Z,6.86
2019-05-05T05:37:45.309Z,6.91
2019-05-05T05:38:45.315Z,6.90
2019-05-05T05:39:45.323Z,6.93
2019-05-05T05:40:45.327Z,6.93
2019-05-05T05:41:45.333Z,6.90
2019-05-05T05:42:45.336Z,6.90
2019-05-05T05:43:45.339Z,7.04
2019-05-05T05:44:45.342Z,7.09
2019-05-05T05:45:45.359Z,7.08
2019-05-05T05:46:45.361Z,7.12
2019-05-05T05:47:45.362Z,7.26
2019-05-05T05:48:45.367Z,7.27
2019-05-05T05:49:45.371Z,7.33
2019-05-05T05:50:45.379Z,7.50
2019-05-05T05:51:45.387Z,7.66
2019-05-05T05:52:45.388Z,7.60
2019-05-05T05:53:45.394Z,7.69
2019-05-05T05:55:45.410Z,7.66
2019-05-05T05:56:45.411Z,7.48
2019-05-05T05:57:45.415Z,7.55
2019-05-05T05:58:45.424Z,7.47
2019-05-05T05:59:46.013Z,7.48
2019-05-05T06:00:45.432Z,7.41
2019-05-05T06:01:45.443Z,7.29
2019-05-05T06:02:45.450Z,7.34
2019-05-05T06:03:45.454Z,7.36
2019-05-05T06:04:45.464Z,7.42
2019-05-05T06:05:45.464Z,7.50
2019-05-05T06:06:45.471Z,7.58
2019-05-05T06:07:45.479Z,7.69
2019-05-05T06:08:45.487Z,7.84
2019-05-05T06:09:45.493Z,7.94
2019-05-05T06:11:45.511Z,7.77
2019-05-05T06:12:45.517Z,7.71
2019-05-05T06:13:47.565Z,7.81
2019-05-05T06:14:45.537Z,7.89
2019-05-05T06:15:45.547Z,7.95
2019-05-05T06:16:45.553Z,8.00
2019-05-05T06:17:45.562Z,8.09
2019-05-05T06:18:45.566Z,8.06
2019-05-05T06:19:45.570Z,8.13
2019-05-05T06:20:45.577Z,8.17
2019-05-05T06:21:45.585Z,8.28
2019-05-05T06:22:45.592Z,8.27
2019-05-05T06:23:45.607Z,8.18
2019-05-05T06:24:45.607Z,8.06
2019-05-05T06:25:45.619Z,8.03
2019-05-05T06:26:45.638Z,8.10
2019-05-05T06:27:45.631Z,8.09
2019-05-05T06:28:45.640Z,8.24
2019-05-05T06:29:45.646Z,8.17
2019-05-05T06:30:45.651Z,8.27
2019-05-05T06:31:45.658Z,8.27
2019-05-05T06:33:45.673Z,8.20
2019-05-05T06:34:45.710Z,8.09
2019-05-05T06:35:45.688Z,8.12
2019-05-05T06:36:45.699Z,8.18
2019-05-05T06:37:46.714Z,8.21
2019-05-05T06:38:45.709Z,8.21
2019-05-05T06:39:45.710Z,8.22
2019-05-05T06:40:45.719Z,8.25
2019-05-05T06:41:45.723Z,8.13
2019-05-05T06:42:45.725Z,8.24
2019-05-05T06:43:45.733Z,8.13
2019-05-05T06:44:45.750Z,8.10
2019-05-05T06:45:45.742Z,8.13
2019-05-05T06:46:45.754Z,8.03
2019-05-05T06:47:45.760Z,8.03
2019-05-05T06:48:45.762Z,8.04
2019-05-05T06:49:45.771Z,7.91
2019-05-05T06:50:45.774Z,8.04
2019-05-05T06:51:45.782Z,8.04
2019-05-05T06:52:47.219Z,8.12
2019-05-05T06:53:45.816Z,8.12
2019-05-05T06:54:45.805Z,8.17
2019-05-05T06:55:45.803Z,8.07
2019-05-05T06:56:45.810Z,8.14
2019-05-05T06:57:45.813Z,8.14
2019-05-05T06:58:45.823Z,8.09
2019-05-05T06:59:45.834Z,7.91
2019-05-05T07:00:45.832Z,7.92
2019-05-05T07:01:45.829Z,8.06
2019-05-05T07:02:45.840Z,8.10
2019-05-05T07:03:45.848Z,8.13
2019-05-05T07:04:45.854Z,8.17
2019-05-05T07:05:45.881Z,8.24
2019-05-05T07:06:54.139Z,8.36
2019-05-05T07:07:45.871Z,8.28
2019-05-05T07:08:45.875Z,8.28
2019-05-05T07:09:45.878Z,8.24
2019-05-05T07:10:45.888Z,8.28
2019-05-05T07:11:45.901Z,8.29
2019-05-05T07:12:45.897Z,8.25
2019-05-05T07:13:45.904Z,8.28
2019-05-05T07:14:45.910Z,8.36
2019-05-05T07:15:45.914Z,8.36
2019-05-05T07:16:45.930Z,8.40
2019-05-05T07:17:45.924Z,8.50
2019-05-05T07:18:45.940Z,8.67
2019-05-05T07:19:45.941Z,8.73
2019-05-05T07:20:45.942Z,8.86
2019-05-05T07:21:45.949Z,8.78
2019-05-05T07:22:58.947Z,8.76
2019-05-05T07:23:45.964Z,8.79
2019-05-05T07:24:45.968Z,8.82
2019-05-05T07:25:46.223Z,8.73
2019-05-05T07:26:45.987Z,8.61
2019-05-05T07:27:45.997Z,8.58
2019-05-05T07:28:45.995Z,8.54
2019-05-05T07:29:46.005Z,8.52
2019-05-05T07:30:46.010Z,8.46
2019-05-05T07:31:46.027Z,8.47
2019-05-05T07:32:46.017Z,8.31
2019-05-05T07:33:46.024Z,8.25
2019-05-05T07:34:46.033Z,8.27
2019-05-05T07:35:55.396Z,8.32
2019-05-05T07:36:46.038Z,8.43
2019-05-05T07:37:46.042Z,8.54
2019-05-05T07:38:46.059Z,8.54
2019-05-05T07:39:46.061Z,8.57
2019-05-05T07:40:46.065Z,8.64
2019-05-05T07:41:46.069Z,8.67
2019-05-05T07:42:46.080Z,8.79
2019-05-05T07:43:46.080Z,8.78
2019-05-05T07:44:46.082Z,8.82
2019-05-05T07:45:46.092Z,8.82
2019-05-05T07:46:46.098Z,8.75
2019-05-05T07:47:47.572Z,8.67
2019-05-05T07:48:46.104Z,8.78
2019-05-05T07:49:46.114Z,8.71
2019-05-05T07:50:58.661Z,8.65
2019-05-05T07:51:46.145Z,8.71
2019-05-05T07:52:46.134Z,8.76
2019-05-05T07:53:46.144Z,8.76
2019-05-05T07:54:46.157Z,8.63
2019-05-05T07:55:46.161Z,8.73
2019-05-05T07:56:46.160Z,8.61
2019-05-05T07:57:46.167Z,8.64
2019-05-05T07:58:46.174Z,8.73
2019-05-05T07:59:46.179Z,8.63
2019-05-05T08:00:46.183Z,8.79
2019-05-05T08:01:46.804Z,8.64
2019-05-05T08:02:46.198Z,8.79
2019-05-05T08:03:46.202Z,8.80
2019-05-05T08:04:46.208Z,8.83
2019-05-05T08:05:46.215Z,9.01
2019-05-05T08:06:46.221Z,9.17
2019-05-05T08:07:46.224Z,9.26
2019-05-05T08:08:46.230Z,9.30
2019-05-05T08:09:46.240Z,9.37
2019-05-05T08:10:46.245Z,9.27
2019-05-05T08:11:46.258Z,9.23
2019-05-05T08:12:46.256Z,9.27
2019-05-05T08:13:46.264Z,9.26
2019-05-05T08:14:46.274Z,9.27
2019-05-05T08:15:56.702Z,9.32
2019-05-05T08:16:46.288Z,9.32
2019-05-05T08:17:46.295Z,9.41
2019-05-05T08:18:46.304Z,9.44
2019-05-05T08:19:46.311Z,9.48
2019-05-05T08:20:46.323Z,9.62
2019-05-05T08:21:46.323Z,9.68
2019-05-05T08:22:46.340Z,9.77
2019-05-05T08:23:46.352Z,9.85
2019-05-05T08:24:46.343Z,9.80
2019-05-05T08:25:46.354Z,10.04
2019-05-05T08:26:46.381Z,10.25
2019-05-05T08:27:46.365Z,10.39
2019-05-05T08:28:46.373Z,10.51
2019-05-05T08:29:46.384Z,10.49
2019-05-05T08:30:46.384Z,10.62
2019-05-05T08:31:46.399Z,10.81
2019-05-05T08:32:46.437Z,10.98
2019-05-05T08:33:46.422Z,11.06
2019-05-05T08:34:56.881Z,11.26
2019-05-05T08:35:46.454Z,11.56
2019-05-05T08:36:46.437Z,11.53
2019-05-05T08:37:46.445Z,11.78
2019-05-05T08:38:46.457Z,11.82
2019-05-05T08:39:46.469Z,11.74
2019-05-05T08:40:46.481Z,11.59
2019-05-05T08:41:47.461Z,11.74
2019-05-05T08:42:46.498Z,11.60
2019-05-05T08:43:46.517Z,11.46
2019-05-05T08:44:46.521Z,11.27
2019-05-05T08:45:46.525Z,11.11
2019-05-05T08:46:46.534Z,11.19
2019-05-05T08:47:46.541Z,11.33
2019-05-05T08:48:46.552Z,11.48
2019-05-05T08:49:46.563Z,11.69
2019-05-05T08:50:46.573Z,11.70
2019-05-05T08:51:46.594Z,11.82
2019-05-05T08:52:46.600Z,11.79
2019-05-05T08:53:48.308Z,11.78
2019-05-05T08:54:46.615Z,11.84
2019-05-05T08:55:46.630Z,11.94
2019-05-05T08:56:46.642Z,12.11
2019-05-05T08:57:46.649Z,12.21
2019-05-05T08:58:49.704Z,12.21
2019-05-05T08:59:46.673Z,12.04
2019-05-05T09:00:46.677Z,11.85
2019-05-05T09:01:46.699Z,11.78
2019-05-05T09:02:46.702Z,11.64
2019-05-05T09:03:46.713Z,11.77
2019-05-05T09:04:46.729Z,12.07
2019-05-05T09:05:46.735Z,12.31
2019-05-05T09:06:46.745Z,12.58
2019-05-05T09:07:46.762Z,12.88
2019-05-05T09:08:46.773Z,13.07
2019-05-05T09:09:46.786Z,13.22
2019-05-05T09:10:46.809Z,12.99
2019-05-05T09:11:46.818Z,12.89
2019-05-05T09:12:46.828Z,12.89
2019-05-05T09:13:46.851Z,12.88
2019-05-05T09:14:46.851Z,13.14
2019-05-05T09:15:46.870Z,13.25
2019-05-05T09:16:46.875Z,13.35
2019-05-05T09:17:46.889Z,13.63
2019-05-05T09:18:46.903Z,14.08
2019-05-05T09:19:46.923Z,14.41
2019-05-05T09:20:46.922Z,14.56
2019-05-05T09:21:46.944Z,14.38
2019-05-05T09:22:46.971Z,14.05
2019-05-05T09:23:59.131Z,14.20
2019-05-05T09:24:47.031Z,14.39
2019-05-05T09:25:47.007Z,14.69
2019-05-05T09:26:47.016Z,14.75
2019-05-05T09:27:47.030Z,14.72
2019-05-05T09:28:47.043Z,15.05
2019-05-05T09:29:47.066Z,15.18
2019-05-05T09:30:47.070Z,15.71
2019-05-05T09:31:47.087Z,16.45
2019-05-05T09:32:47.115Z,16.81
2019-05-05T09:33:47.121Z,17.32
2019-05-05T09:34:47.126Z,17.27
2019-05-05T09:35:47.151Z,17.43
2019-05-05T09:36:47.229Z,17.42
2019-05-05T09:37:47.191Z,17.21
2019-05-05T09:38:47.193Z,17.28
2019-05-05T09:39:47.210Z,17.18
2019-05-05T09:40:47.223Z,17.18
2019-05-05T09:41:47.249Z,17.24
2019-05-05T09:42:47.254Z,17.32
2019-05-05T09:43:47.280Z,17.39
2019-05-05T09:44:47.291Z,17.14
2019-05-05T09:45:47.300Z,16.62
2019-05-05T09:46:47.323Z,16.40
2019-05-05T09:47:47.347Z,16.33
2019-05-05T09:48:47.351Z,16.03
2019-05-05T09:49:47.369Z,15.49
2019-05-05T09:50:47.381Z,15.35
2019-05-05T09:51:47.394Z,15.31
2019-05-05T09:52:47.415Z,15.30
2019-05-05T09:53:47.421Z,14.97
2019-05-05T09:54:47.431Z,14.42
2019-05-05T09:55:47.448Z,14.11
2019-05-05T09:56:47.454Z,14.02
2019-05-05T09:57:47.473Z,13.98
2019-05-05T09:58:47.485Z,13.93
2019-05-05T09:59:47.503Z,13.51
2019-05-05T10:00:47.529Z,12.94
2019-05-05T10:01:47.526Z,12.40
2019-05-05T10:02:47.531Z,12.04
2019-05-05T10:03:47.554Z,11.60
2019-05-05T10:04:47.564Z,11.28
2019-05-05T10:05:47.566Z,11.16
2019-05-05T10:06:47.975Z,11.12
2019-05-05T10:07:47.588Z,11.11
2019-05-05T10:08:47.592Z,11.02
2019-05-05T10:09:47.599Z,11.03
2019-05-05T10:10:47.628Z,10.99
2019-05-05T10:11:47.643Z,10.98
2019-05-05T10:12:47.633Z,10.86
2019-05-05T10:13:47.638Z,10.91
2019-05-05T10:14:47.651Z,10.98
2019-05-05T10:15:47.660Z,11.01
2019-05-05T10:16:47.671Z,11.11
2019-05-05T10:17:47.682Z,11.35
2019-05-05T10:18:47.695Z,11.38
2019-05-05T10:19:47.703Z,11.48
2019-05-05T10:20:47.703Z,11.48
2019-05-05T10:21:47.709Z,11.63
2019-05-05T10:22:47.722Z,11.72
2019-05-05T10:23:47.737Z,11.94
2019-05-05T10:24:47.731Z,12.08
2019-05-05T10:25:47.747Z,12.15
2019-05-05T10:26:47.768Z,12.34
2019-05-05T10:27:47.888Z,12.26
2019-05-05T10:28:47.781Z,12.15
2019-05-05T10:29:47.782Z,12.22
2019-05-05T10:30:47.790Z,12.44
2019-05-05T10:31:47.800Z,12.51
2019-05-05T10:32:47.838Z,12.79
2019-05-05T10:33:47.820Z,13.25
2019-05-05T10:34:47.834Z,14.38
2019-05-05T10:35:47.843Z,14.71
2019-05-05T10:36:47.837Z,14.82
2019-05-05T10:37:47.880Z,15.16
2019-05-05T10:38:47.874Z,15.05
2019-05-05T10:39:47.890Z,14.69
2019-05-05T10:40:48.396Z,14.29
2019-05-05T10:41:47.914Z,13.96
2019-05-05T10:42:47.916Z,13.59
2019-05-05T10:43:47.935Z,13.59
2019-05-05T10:44:47.982Z,13.71
2019-05-05T10:45:47.950Z,13.63
2019-05-05T10:46:47.975Z,14.30
2019-05-05T10:47:47.976Z,15.15
2019-05-05T10:48:48.009Z,15.53
2019-05-05T10:49:48.003Z,15.96
2019-05-05T10:50:48.017Z,15.58
2019-05-05T10:51:48.026Z,14.44
2019-05-05T10:52:48.042Z,13.69
2019-05-05T10:53:48.050Z,13.50
2019-05-05T10:54:48.080Z,13.35
2019-05-05T10:55:48.089Z,13.35
2019-05-05T10:56:48.091Z,13.29
2019-05-05T10:57:48.102Z,13.39
2019-05-05T10:58:48.121Z,13.61
2019-05-05T10:59:48.128Z,13.75
2019-05-05T11:00:48.132Z,14.13
2019-05-05T11:01:48.142Z,14.27
2019-05-05T11:02:48.169Z,14.13
2019-05-05T11:03:48.176Z,14.12
2019-05-05T11:04:49.103Z,13.94
2019-05-05T11:05:48.195Z,13.73
2019-05-05T11:06:48.210Z,13.72
2019-05-05T11:07:48.216Z,13.80
2019-05-05T11:08:48.223Z,13.93
2019-05-05T11:09:48.245Z,14.08
2019-05-05T11:10:48.254Z,14.09
2019-05-05T11:11:48.271Z,14.17
2019-05-05T11:12:48.270Z,14.21
2019-05-05T11:13:48.281Z,14.05
2019-05-05T11:14:48.303Z,13.94
2019-05-05T11:15:48.304Z,13.73
2019-05-05T11:16:48.322Z,13.46
2019-05-05T11:17:48.318Z,13.38
2019-05-05T11:18:48.328Z,13.25
2019-05-05T11:19:50.228Z,14.16
2019-05-05T11:20:48.350Z,14.93
2019-05-05T11:21:48.356Z,15.53
2019-05-05T11:22:48.369Z,16.06
2019-05-05T11:23:48.374Z,16.85
2019-05-05T11:24:58.274Z,17.36
2019-05-05T11:25:48.417Z,18.02
2019-05-05T11:26:48.435Z,18.25
2019-05-05T11:27:48.427Z,18.62
2019-05-05T11:28:48.441Z,18.97
2019-05-05T11:29:48.452Z,19.31
2019-05-05T11:30:48.468Z,19.79
2019-05-05T11:31:48.490Z,20.02
2019-05-05T11:32:48.497Z,20.48
2019-05-05T11:33:48.505Z,20.51
2019-05-05T11:34:48.526Z,20.64
2019-05-05T11:35:48.539Z,20.96
2019-05-05T11:36:48.564Z,21.12
2019-05-05T11:37:48.577Z,21.19
2019-05-05T11:38:48.582Z,21.31
2019-05-05T11:39:48.600Z,21.11
2019-05-05T11:40:48.612Z,20.64
2019-05-05T11:41:48.628Z,20.31
2019-05-05T11:42:48.650Z,20.19
2019-05-05T11:43:48.663Z,19.62
2019-05-05T11:44:48.680Z,18.91
2019-05-05T11:45:48.695Z,18.38
2019-05-05T11:46:48.706Z,18.16
2019-05-05T11:47:48.717Z,17.81
2019-05-05T11:48:48.734Z,17.49
2019-05-05T11:49:48.758Z,17.24
2019-05-05T11:50:48.774Z,16.62
2019-05-05T11:51:48.780Z,16.30
2019-05-05T11:52:48.791Z,16.25
2019-05-05T11:53:48.797Z,15.92
2019-05-05T11:54:48.828Z,15.78
2019-05-05T11:55:48.833Z,15.74
2019-05-05T11:56:48.843Z,15.88
2019-05-05T11:57:48.858Z,15.98
2019-05-05T11:58:48.869Z,15.92
2019-05-05T11:59:48.882Z,16.27
2019-05-05T12:00:48.898Z,16.42
2019-05-05T12:01:48.903Z,16.55
2019-05-05T12:02:48.905Z,16.77
2019-05-05T12:03:48.924Z,16.91
2019-05-05T12:04:48.938Z,17.02
2019-05-05T12:05:48.952Z,17.18
2019-05-05T12:06:48.984Z,17.15
2019-05-05T12:07:48.984Z,17.25
2019-05-05T12:08:48.988Z,17.40
2019-05-05T12:09:48.994Z,17.53
2019-05-05T12:10:49.011Z,17.49
2019-05-05T12:11:49.057Z,17.35
2019-05-05T12:12:49.027Z,17.36
2019-05-05T12:13:49.052Z,17.45
2019-05-05T12:14:49.059Z,17.62
2019-05-05T12:15:49.068Z,17.51
2019-05-05T12:16:49.085Z,17.87
2019-05-05T12:17:49.101Z,18.68
2019-05-05T12:18:49.110Z,19.17
2019-05-05T12:19:49.145Z,19.43
2019-05-05T12:20:49.133Z,19.25
2019-05-05T12:21:49.150Z,19.58
2019-05-05T12:22:49.160Z,19.60
2019-05-05T12:23:50.137Z,19.24
2019-05-05T12:24:49.188Z,19.20
2019-05-05T12:25:49.197Z,19.57
2019-05-05T12:26:49.227Z,20.27
2019-05-05T12:27:49.224Z,21.13
2019-05-05T12:28:49.244Z,21.18
2019-05-05T12:29:49.253Z,21.55
2019-05-05T12:30:49.268Z,21.83
2019-05-05T12:31:49.282Z,22.26
2019-05-05T12:32:49.300Z,22.48
2019-05-05T12:33:49.309Z,23.14
2019-05-05T12:34:49.333Z,23.15
2019-05-05T12:35:49.342Z,23.06
2019-05-05T12:36:49.352Z,22.86
2019-05-05T12:37:49.373Z,22.99
2019-05-05T12:38:49.406Z,23.03
2019-05-05T12:39:49.405Z,22.49
2019-05-05T12:40:49.416Z,22.27
2019-05-05T12:41:49.435Z,22.46
2019-05-05T12:42:49.450Z,22.51
2019-05-05T12:43:49.486Z,22.49
2019-05-05T12:44:49.487Z,22.74
2019-05-05T12:45:49.512Z,23.54
2019-05-05T12:46:49.515Z,24.27
2019-05-05T12:47:49.528Z,23.94
2019-05-05T12:48:49.552Z,23.57
2019-05-05T12:49:49.555Z,22.63
2019-05-05T12:50:49.588Z,21.61
2019-05-05T12:51:49.605Z,20.63
2019-05-05T12:52:49.615Z,20.07
2019-05-05T12:53:49.628Z,19.20
2019-05-05T12:54:49.635Z,18.38
2019-05-05T12:55:49.662Z,17.77
2019-05-05T12:56:49.682Z,17.24
2019-05-05T12:57:49.691Z,17.03
2019-05-05T12:58:49.713Z,16.78
2019-05-05T12:59:49.734Z,16.36
2019-05-05T13:00:49.730Z,15.76
2019-05-05T13:01:49.753Z,15.44
2019-05-05T13:02:49.756Z,15.38
2019-05-05T13:03:49.768Z,15.56
2019-05-05T13:04:49.784Z,15.55
2019-05-05T13:05:49.797Z,15.22
2019-05-05T13:06:49.814Z,15.19
2019-05-05T13:07:49.815Z,15.49
2019-05-05T13:08:49.830Z,16.37
2019-05-05T13:09:49.852Z,17.17
2019-05-05T13:10:49.863Z,17.53
2019-05-05T13:11:49.874Z,17.84
2019-05-05T13:12:49.877Z,17.74
2019-05-05T13:13:49.892Z,17.55